sensor_id;sensor_type;location;lat;lon;timestamp;pressure;altitude;pressure_sealevel;temperature;humidity
54822;BME280;41299;43.546;16.426;2022-12-10T05:36:32;100200.44;;;13.88;100.00
54822;BME280;41299;43.546;16.426;2022-12-10T06:31:01;100208.09;;;14.43;100.00
54822;BME280;41299;43.546;16.426;2022-12-10T06:33:28;100189.06;;;14.44;100.00
54822;BME280;41299;43.546;16.426;2022-12-10T06:35:53;100192.47;;;14.46;100.00
54822;BME280;41299;43.546;16.426;2022-12-10T06:38:19;100183.81;;;14.48;100.00
54822;BME280;41299;43.546;16.426;2022-12-10T06:40:46;100170.84;;;14.46;100.00
54822;BME280;41299;43.546;16.426;2022-12-10T06:43:12;100153.47;;;14.50;100.00
54822;BME280;41299;43.546;16.426;2022-12-10T06:45:38;100165.50;;;14.54;100.00
54822;BME280;41299;43.546;16.426;2022-12-10T06:48:04;100164.69;;;14.53;100.00
54822;BME280;41299;43.546;16.426;2022-12-10T06:50:30;100178.44;;;14.57;100.00
54822;BME280;41299;43.546;16.426;2022-12-10T06:52:59;100170.66;;;14.57;100.00
54822;BME280;41299;43.546;16.426;2022-12-10T06:55:25;100163.53;;;14.67;100.00
54822;BME280;41299;43.546;16.426;2022-12-10T06:57:51;100164.41;;;14.66;100.00
54822;BME280;41299;43.546;16.426;2022-12-10T07:00:26;100151.47;;;14.64;100.00
54822;BME280;41299;43.546;16.426;2022-12-10T07:02:52;100138.44;;;14.67;100.00
54822;BME280;41299;43.546;16.426;2022-12-10T07:05:23;100141.78;;;14.72;100.00
54822;BME280;41299;43.546;16.426;2022-12-10T07:07:48;100133.16;;;14.70;100.00
54822;BME280;41299;43.546;16.426;2022-12-10T07:10:17;100120.16;;;14.73;100.00
54822;BME280;41299;43.546;16.426;2022-12-10T07:12:43;100112.91;;;14.88;100.00
54822;BME280;41299;43.546;16.426;2022-12-10T07:15:09;100124.16;;;14.89;100.00
54822;BME280;41299;43.546;16.426;2022-12-10T07:17:35;100117.22;;;14.89;100.00
54822;BME280;41299;43.546;16.426;2022-12-10T07:20:00;100139.72;;;14.90;100.00
54822;BME280;41299;43.546;16.426;2022-12-10T07:22:27;100151.59;;;15.01;100.00
54822;BME280;41299;43.546;16.426;2022-12-10T07:24:53;100151.63;;;14.99;100.00
54822;BME280;41299;43.546;16.426;2022-12-10T07:27:21;100142.88;;;15.03;100.00
54822;BME280;41299;43.546;16.426;2022-12-10T07:29:47;100127.38;;;15.00;100.00
54822;BME280;41299;43.546;16.426;2022-12-10T07:32:12;100130.63;;;15.10;100.00
54822;BME280;41299;43.546;16.426;2022-12-10T07:34:38;100133.19;;;15.11;100.00
54822;BME280;41299;43.546;16.426;2022-12-10T07:37:04;100125.31;;;15.15;100.00
54822;BME280;41299;43.546;16.426;2022-12-10T07:39:29;100122.75;;;15.13;100.00
54822;BME280;41299;43.546;16.426;2022-12-10T07:41:55;100101.75;;;15.22;100.00
54822;BME280;41299;43.546;16.426;2022-12-10T07:44:22;100103.53;;;15.20;100.00
54822;BME280;41299;43.546;16.426;2022-12-10T07:46:49;100102.66;;;15.21;100.00
54822;BME280;41299;43.546;16.426;2022-12-10T07:49:15;100098.19;;;15.26;100.00
54822;BME280;41299;43.546;16.426;2022-12-10T07:51:43;100093.94;;;15.22;100.00
54822;BME280;41299;43.546;16.426;2022-12-10T07:54:09;100100.09;;;15.18;100.00
54822;BME280;41299;43.546;16.426;2022-12-10T07:56:35;100097.50;;;15.18;100.00
54822;BME280;41299;43.546;16.426;2022-12-10T07:59:00;100106.97;;;15.21;100.00
54822;BME280;41299;43.546;16.426;2022-12-10T08:01:26;100100.03;;;15.21;100.00
54822;BME280;41299;43.546;16.426;2022-12-10T08:03:53;100095.59;;;15.26;100.00
54822;BME280;41299;43.546;16.426;2022-12-10T08:06:19;100091.16;;;15.32;100.00
54822;BME280;41299;43.546;16.426;2022-12-10T08:08:45;100092.78;;;15.36;100.00
54822;BME280;41299;43.546;16.426;2022-12-10T08:11:12;100089.28;;;15.37;100.00
54822;BME280;41299;43.546;16.426;2022-12-10T08:13:38;100099.69;;;15.37;100.00
54822;BME280;41299;43.546;16.426;2022-12-10T08:16:05;100099.69;;;15.37;100.00
54822;BME280;41299;43.546;16.426;2022-12-10T08:18:35;100087.34;;;15.45;100.00
54822;BME280;41299;43.546;16.426;2022-12-10T08:21:07;100087.34;;;15.45;100.00
54822;BME280;41299;43.546;16.426;2022-12-10T08:23:33;100083.78;;;15.49;100.00
54822;BME280;41299;43.546;16.426;2022-12-10T08:26:02;100087.34;;;15.45;100.00
54822;BME280;41299;43.546;16.426;2022-12-10T08:28:28;100088.94;;;15.51;100.00
54822;BME280;41299;43.546;16.426;2022-12-10T08:30:53;100089.75;;;15.53;100.00
54822;BME280;41299;43.546;16.426;2022-12-10T08:33:19;100088.75;;;15.59;100.00
54822;BME280;41299;43.546;16.426;2022-12-10T08:35:45;100084.50;;;15.55;100.00
54822;BME280;41299;43.546;16.426;2022-12-10T08:38:11;100093.13;;;15.57;100.00
54822;BME280;41299;43.546;16.426;2022-12-10T08:40:41;100099.25;;;15.54;100.00
54822;BME280;41299;43.546;16.426;2022-12-10T08:43:07;100101.81;;;15.56;100.00
54822;BME280;41299;43.546;16.426;2022-12-10T08:45:33;100108.81;;;15.53;100.00
54822;BME280;41299;43.546;16.426;2022-12-10T08:47:59;100108.75;;;15.55;100.00
54822;BME280;41299;43.546;16.426;2022-12-10T08:50:26;100110.50;;;15.55;100.00
54822;BME280;41299;43.546;16.426;2022-12-10T08:52:52;100102.72;;;15.55;100.00
54822;BME280;41299;43.546;16.426;2022-12-10T08:55:18;100107.88;;;15.56;100.00
54822;BME280;41299;43.546;16.426;2022-12-10T08:57:44;100100.00;;;15.58;100.00
54822;BME280;41299;43.546;16.426;2022-12-10T09:00:10;100086.16;;;15.59;100.00
54822;BME280;41299;43.546;16.426;2022-12-10T09:02:38;100080.06;;;15.60;100.00
54822;BME280;41299;43.546;16.426;2022-12-10T09:05:04;100080.06;;;15.60;100.00
54822;BME280;41299;43.546;16.426;2022-12-10T09:07:30;100075.81;;;15.56;100.00
54822;BME280;41299;43.546;16.426;2022-12-10T09:09:56;100066.34;;;15.53;100.00
54822;BME280;41299;43.546;16.426;2022-12-10T09:12:23;100061.94;;;15.57;100.00
54822;BME280;41299;43.546;16.426;2022-12-10T09:14:49;100065.41;;;15.57;100.00
54822;BME280;41299;43.546;16.426;2022-12-10T09:17:14;100055.91;;;15.56;100.00
54822;BME280;41299;43.546;16.426;2022-12-10T09:19:41;100064.53;;;15.57;100.00
54822;BME280;41299;43.546;16.426;2022-12-10T09:22:07;100062.81;;;15.56;100.00
54822;BME280;41299;43.546;16.426;2022-12-10T09:24:33;100055.72;;;15.62;100.00
54822;BME280;41299;43.546;16.426;2022-12-10T09:27:00;100053.06;;;15.64;100.00
54822;BME280;41299;43.546;16.426;2022-12-10T09:29:26;100053.94;;;15.64;100.00
54822;BME280;41299;43.546;16.426;2022-12-10T09:31:52;100037.47;;;15.64;100.00
54822;BME280;41299;43.546;16.426;2022-12-10T09:34:18;100037.53;;;15.62;100.00
54822;BME280;41299;43.546;16.426;2022-12-10T09:36:44;100046.09;;;15.66;100.00
54822;BME280;41299;43.546;16.426;2022-12-10T09:50:16;100032.16;;;15.69;100.00
54822;BME280;41299;43.546;16.426;2022-12-10T09:52:45;100024.41;;;15.67;100.00
54822;BME280;41299;43.546;16.426;2022-12-10T09:55:19;100012.13;;;15.72;100.00
54822;BME280;41299;43.546;16.426;2022-12-10T09:57:51;100016.56;;;15.69;100.00
54822;BME280;41299;43.546;16.426;2022-12-10T10:13:21;100005.13;;;15.74;100.00
54822;BME280;41299;43.546;16.426;2022-12-10T10:16:21;99995.66;;;15.73;100.00
54822;BME280;41299;43.546;16.426;2022-12-10T10:19:09;99980.69;;;15.82;100.00
54822;BME280;41299;43.546;16.426;2022-12-10T10:21:37;99982.47;;;15.79;100.00
54822;BME280;41299;43.546;16.426;2022-12-10T10:24:03;99973.78;;;15.80;100.00
54822;BME280;41299;43.546;16.426;2022-12-10T10:26:35;99966.97;;;15.76;100.00
54822;BME280;41299;43.546;16.426;2022-12-10T10:29:02;99965.19;;;15.78;100.00
54822;BME280;41299;43.546;16.426;2022-12-10T10:31:31;99958.34;;;15.74;100.00
54822;BME280;41299;43.546;16.426;2022-12-10T10:33:58;99958.34;;;15.74;100.00
54822;BME280;41299;43.546;16.426;2022-12-10T10:36:24;99942.94;;;15.68;100.00
54822;BME280;41299;43.546;16.426;2022-12-10T10:38:58;99951.88;;;15.58;100.00
54822;BME280;41299;43.546;16.426;2022-12-10T10:41:37;99940.91;;;15.48;100.00
54822;BME280;41299;43.546;16.426;2022-12-10T10:44:05;99943.63;;;15.43;100.00
54822;BME280;41299;43.546;16.426;2022-12-10T10:46:38;99946.56;;;15.31;100.00
54822;BME280;41299;43.546;16.426;2022-12-10T10:49:17;99938.97;;;15.23;100.00
54822;BME280;41299;43.546;16.426;2022-12-10T10:51:44;99939.06;;;15.18;100.00
54822;BME280;41299;43.546;16.426;2022-12-10T10:54:32;99943.50;;;15.15;100.00
54822;BME280;41299;43.546;16.426;2022-12-10T10:57:01;99940.16;;;15.11;100.00
54822;BME280;41299;43.546;16.426;2022-12-10T10:59:30;99933.31;;;15.07;100.00
54822;BME280;41299;43.546;16.426;2022-12-10T11:01:59;99923.94;;;15.03;100.00
54822;BME280;41299;43.546;16.426;2022-12-10T11:07:02;99913.53;;;15.03;100.00
54822;BME280;41299;43.546;16.426;2022-12-10T11:09:29;99905.72;;;15.04;100.00
54822;BME280;41299;43.546;16.426;2022-12-10T11:11:59;99913.53;;;15.03;100.00
54822;BME280;41299;43.546;16.426;2022-12-10T11:14:26;99909.28;;;15.00;100.00
54822;BME280;41299;43.546;16.426;2022-12-10T11:23:02;99904.13;;;14.98;100.00
54822;BME280;41299;43.546;16.426;2022-12-10T11:28:09;99891.13;;;14.98;100.00
54822;BME280;41299;43.546;16.426;2022-12-10T11:30:41;99893.78;;;14.95;100.00
54822;BME280;41299;43.546;16.426;2022-12-10T11:38:24;99881.97;;;14.85;100.00
54822;BME280;41299;43.546;16.426;2022-12-10T11:45:58;99889.94;;;14.79;100.00
54822;BME280;41299;43.546;16.426;2022-12-10T11:48:42;99883.91;;;14.77;100.00
54822;BME280;41299;43.546;16.426;2022-12-10T11:51:35;99886.50;;;14.77;100.00
54822;BME280;41299;43.546;16.426;2022-12-10T11:54:14;99882.22;;;14.72;100.00
54822;BME280;41299;43.546;16.426;2022-12-10T11:56:47;99879.63;;;14.72;100.00
54822;BME280;41299;43.546;16.426;2022-12-10T12:01:46;99874.53;;;14.69;100.00
54822;BME280;41299;43.546;16.426;2022-12-10T12:07:01;99879.91;;;14.62;100.00
54822;BME280;41299;43.546;16.426;2022-12-10T12:14:59;99872.16;;;14.60;100.00
54822;BME280;41299;43.546;16.426;2022-12-10T12:17:30;99853.34;;;14.53;100.00
54822;BME280;41299;43.546;16.426;2022-12-10T12:19:57;99859.44;;;14.51;100.00
54822;BME280;41299;43.546;16.426;2022-12-10T12:24:52;99849.09;;;14.49;100.00
54822;BME280;41299;43.546;16.426;2022-12-10T12:27:22;99844.81;;;14.48;100.00
54822;BME280;41299;43.546;16.426;2022-12-10T12:32:20;99826.69;;;14.46;100.00
54822;BME280;41299;43.546;16.426;2022-12-10T12:35:10;99830.13;;;14.47;100.00
54822;BME280;41299;43.546;16.426;2022-12-10T12:42:58;99821.56;;;14.43;100.00
54822;BME280;41299;43.546;16.426;2022-12-10T12:45:30;99819.06;;;14.40;100.00
54822;BME280;41299;43.546;16.426;2022-12-10T12:48:06;99823.41;;;14.38;100.00
54822;BME280;41299;43.546;16.426;2022-12-10T12:50:45;99820.91;;;14.35;100.00
54822;BME280;41299;43.546;16.426;2022-12-10T12:53:15;99820.97;;;14.32;100.00
54822;BME280;41299;43.546;16.426;2022-12-10T13:00:56;99795.94;;;14.31;100.00
54822;BME280;41299;43.546;16.426;2022-12-10T13:05:51;99795.19;;;14.26;100.00
54822;BME280;41299;43.546;16.426;2022-12-10T13:11:15;99808.25;;;14.23;100.00
54822;BME280;41299;43.546;16.426;2022-12-10T13:13:31;99793.53;;;14.23;100.00
54822;BME280;41299;43.546;16.426;2022-12-10T13:18:44;99794.47;;;14.21;100.00
54822;BME280;41299;43.546;16.426;2022-12-10T13:21:26;99799.66;;;14.21;100.00
54822;BME280;41299;43.546;16.426;2022-12-10T13:23:53;99785.91;;;14.17;100.00
54822;BME280;41299;43.546;16.426;2022-12-10T13:26:25;99779.00;;;14.17;100.00
54822;BME280;41299;43.546;16.426;2022-12-10T13:28:53;99774.63;;;14.18;100.00
54822;BME280;41299;43.546;16.426;2022-12-10T13:31:32;99775.56;;;14.15;100.00
54822;BME280;41299;43.546;16.426;2022-12-10T13:36:33;99759.31;;;14.10;100.00
54822;BME280;41299;43.546;16.426;2022-12-10T13:41:28;99756.78;;;14.07;100.00
54822;BME280;41299;43.546;16.426;2022-12-10T13:46:59;99765.44;;;14.06;100.00
54822;BME280;41299;43.546;16.426;2022-12-10T13:49:29;99752.50;;;14.04;100.00
54822;BME280;41299;43.546;16.426;2022-12-10T13:51:59;99748.19;;;14.05;100.00
54822;BME280;41299;43.546;16.426;2022-12-10T13:54:32;99736.19;;;14.01;100.00
54822;BME280;41299;43.546;16.426;2022-12-10T13:59:31;99726.69;;;14.01;100.00
54822;BME280;41299;43.546;16.426;2022-12-10T14:05:03;99731.06;;;13.98;100.00
54822;BME280;41299;43.546;16.426;2022-12-10T14:07:30;99714.69;;;13.97;100.00
54822;BME280;41299;43.546;16.426;2022-12-10T14:09:56;99713.81;;;13.97;100.00
54822;BME280;41299;43.546;16.426;2022-12-10T14:12:24;99715.63;;;13.93;100.00
54822;BME280;41299;43.546;16.426;2022-12-10T14:14:58;99708.72;;;13.94;100.00
54822;BME280;41299;43.546;16.426;2022-12-10T14:17:36;99702.66;;;13.95;100.00
54822;BME280;41299;43.546;16.426;2022-12-10T14:20:14;99705.31;;;13.91;100.00
54822;BME280;41299;43.546;16.426;2022-12-10T14:22:48;99701.75;;;13.96;100.00
54822;BME280;41299;43.546;16.426;2022-12-10T14:25:34;99684.50;;;13.95;100.00
54822;BME280;41299;43.546;16.426;2022-12-10T14:28:11;99690.63;;;13.92;100.00
54822;BME280;41299;43.546;16.426;2022-12-10T14:30:37;99689.69;;;13.95;100.00
54822;BME280;41299;43.546;16.426;2022-12-10T14:33:07;99694.91;;;13.93;100.00
54822;BME280;41299;43.546;16.426;2022-12-10T14:35:54;99694.09;;;13.91;100.00
54822;BME280;41299;43.546;16.426;2022-12-10T14:38:27;99690.66;;;13.90;100.00
54822;BME280;41299;43.546;16.426;2022-12-10T14:40:55;99692.28;;;13.95;100.00
54822;BME280;41299;43.546;16.426;2022-12-10T14:43:21;99685.41;;;13.94;100.00
54822;BME280;41299;43.546;16.426;2022-12-10T14:45:50;99686.25;;;13.92;100.00
54822;BME280;41299;43.546;16.426;2022-12-10T14:48:17;99688.09;;;13.89;100.00
54822;BME280;41299;43.546;16.426;2022-12-10T14:50:43;99682.88;;;13.90;100.00
54822;BME280;41299;43.546;16.426;2022-12-10T14:53:20;99681.06;;;13.92;100.00
54822;BME280;41299;43.546;16.426;2022-12-10T14:56:00;99672.50;;;13.90;100.00
54822;BME280;41299;43.546;16.426;2022-12-10T14:58:44;99668.13;;;13.92;100.00
54822;BME280;41299;43.546;16.426;2022-12-10T15:01:23;99662.94;;;13.92;100.00
54822;BME280;41299;43.546;16.426;2022-12-10T15:03:51;99660.28;;;13.96;100.00
54822;BME280;41299;43.546;16.426;2022-12-10T15:06:18;99650.81;;;13.95;100.00
54822;BME280;41299;43.546;16.426;2022-12-10T15:08:44;99647.34;;;13.94;100.00
54822;BME280;41299;43.546;16.426;2022-12-10T15:11:10;99638.75;;;13.94;100.00
54822;BME280;41299;43.546;16.426;2022-12-10T15:13:41;99639.53;;;13.96;100.00
54822;BME280;41299;43.546;16.426;2022-12-10T15:16:15;99637.81;;;13.96;100.00
54822;BME280;41299;43.546;16.426;2022-12-10T15:18:41;99626.56;;;13.97;100.00
54822;BME280;41299;43.546;16.426;2022-12-10T15:21:13;99623.19;;;13.94;100.00
54822;BME280;41299;43.546;16.426;2022-12-10T15:23:41;99635.22;;;13.96;100.00
54822;BME280;41299;43.546;16.426;2022-12-10T15:26:15;99624.06;;;13.92;100.00
54822;BME280;41299;43.546;16.426;2022-12-10T15:28:43;99627.50;;;13.93;100.00
54822;BME280;41299;43.546;16.426;2022-12-10T15:33:39;99617.19;;;13.91;100.00
54822;BME280;41299;43.546;16.426;2022-12-10T15:36:11;99605.13;;;13.90;100.00
54822;BME280;41299;43.546;16.426;2022-12-10T15:38:42;99604.31;;;13.88;100.00
54822;BME280;41299;43.546;16.426;2022-12-10T15:44:23;99589.56;;;13.90;100.00
54822;BME280;41299;43.546;16.426;2022-12-10T15:46:50;99594.84;;;13.87;100.00
54822;BME280;41299;43.546;16.426;2022-12-10T15:49:16;99576.72;;;13.87;100.00
54822;BME280;41299;43.546;16.426;2022-12-10T15:51:42;99581.00;;;13.88;100.00
54822;BME280;41299;43.546;16.426;2022-12-10T15:54:42;99574.13;;;13.87;100.00
54822;BME280;41299;43.546;16.426;2022-12-10T15:57:20;99577.53;;;13.88;100.00
54822;BME280;41299;43.546;16.426;2022-12-10T15:59:50;99574.97;;;13.86;100.00
54822;BME280;41299;43.546;16.426;2022-12-10T16:02:24;99568.94;;;13.87;100.00
54822;BME280;41299;43.546;16.426;2022-12-10T16:04:51;99563.75;;;13.87;100.00
54822;BME280;41299;43.546;16.426;2022-12-10T16:07:17;99549.91;;;13.88;100.00
54822;BME280;41299;43.546;16.426;2022-12-10T16:09:44;99549.91;;;13.88;100.00
54822;BME280;41299;43.546;16.426;2022-12-10T16:12:10;99540.38;;;13.89;100.00
54822;BME280;41299;43.546;16.426;2022-12-10T16:14:37;99518.88;;;13.85;100.00
54822;BME280;41299;43.546;16.426;2022-12-10T16:17:03;99520.56;;;13.86;100.00
54822;BME280;41299;43.546;16.426;2022-12-10T16:19:29;99508.50;;;13.85;100.00
54822;BME280;41299;43.546;16.426;2022-12-10T16:21:55;99500.75;;;13.84;100.00
54822;BME280;41299;43.546;16.426;2022-12-10T16:24:21;99490.53;;;13.79;100.00
54822;BME280;41299;43.546;16.426;2022-12-10T16:26:47;99487.16;;;13.77;100.00
54822;BME280;41299;43.546;16.426;2022-12-10T16:29:13;99479.44;;;13.74;100.00
54822;BME280;41299;43.546;16.426;2022-12-10T16:31:41;99454.41;;;13.74;100.00
54822;BME280;41299;43.546;16.426;2022-12-10T16:34:07;99418.16;;;13.73;100.00
54822;BME280;41299;43.546;16.426;2022-12-10T16:36:33;99427.63;;;13.74;100.00
54822;BME280;41299;43.546;16.426;2022-12-10T16:38:59;99418.16;;;13.73;100.00
54822;BME280;41299;43.546;16.426;2022-12-10T16:41:25;99396.66;;;13.71;100.00
54822;BME280;41299;43.546;16.426;2022-12-10T16:43:53;99380.25;;;13.70;100.00
54822;BME280;41299;43.546;16.426;2022-12-10T16:46:19;99365.63;;;13.68;100.00
54822;BME280;41299;43.546;16.426;2022-12-10T16:48:45;99361.34;;;13.67;100.00
54822;BME280;41299;43.546;16.426;2022-12-10T16:51:13;99345.06;;;13.63;100.00
54822;BME280;41299;43.546;16.426;2022-12-10T16:53:39;99319.97;;;13.63;100.00
54822;BME280;41299;43.546;16.426;2022-12-10T16:56:06;99309.78;;;13.59;100.00
54822;BME280;41299;43.546;16.426;2022-12-10T16:58:32;99302.97;;;13.55;100.00
54822;BME280;41299;43.546;16.426;2022-12-10T17:00:58;99301.44;;;13.49;100.00
54822;BME280;41299;43.546;16.426;2022-12-10T17:03:26;99309.19;;;13.49;100.00
54822;BME280;41299;43.546;16.426;2022-12-10T17:05:54;99311.03;;;13.44;100.00
54822;BME280;41299;43.546;16.426;2022-12-10T17:08:20;99317.13;;;13.43;100.00
54822;BME280;41299;43.546;16.426;2022-12-10T17:10:46;99319.78;;;13.39;100.00
54822;BME280;41299;43.546;16.426;2022-12-10T17:13:31;99323.28;;;13.38;100.00
54822;BME280;41299;43.546;16.426;2022-12-10T17:15:57;99328.38;;;13.42;100.00
54822;BME280;41299;43.546;16.426;2022-12-10T17:18:23;99326.53;;;13.45;100.00
54822;BME280;41299;43.546;16.426;2022-12-10T17:20:49;99333.44;;;13.45;100.00
54822;BME280;41299;43.546;16.426;2022-12-10T17:23:15;99340.44;;;13.43;100.00
54822;BME280;41299;43.546;16.426;2022-12-10T17:25:41;99335.25;;;13.43;100.00
54822;BME280;41299;43.546;16.426;2022-12-10T17:28:15;99336.09;;;13.43;100.00
54822;BME280;41299;43.546;16.426;2022-12-10T17:30:41;99338.66;;;13.43;100.00
54822;BME280;41299;43.546;16.426;2022-12-10T17:33:09;99332.72;;;13.39;100.00
54822;BME280;41299;43.546;16.426;2022-12-10T17:35:37;99324.25;;;13.34;100.00
54822;BME280;41299;43.546;16.426;2022-12-10T17:38:03;99329.34;;;13.37;100.00
54822;BME280;41299;43.546;16.426;2022-12-10T17:40:29;99332.09;;;13.33;100.00
54822;BME280;41299;43.546;16.426;2022-12-10T17:42:56;99329.53;;;13.31;100.00
54822;BME280;41299;43.546;16.426;2022-12-10T17:45:22;99326.13;;;13.29;100.00
54822;BME280;41299;43.546;16.426;2022-12-10T17:47:48;99321.03;;;13.26;100.00
54822;BME280;41299;43.546;16.426;2022-12-10T17:50:35;99324.59;;;13.22;100.00
54822;BME280;41299;43.546;16.426;2022-12-10T17:53:02;99339.25;;;13.23;100.00
54822;BME280;41299;43.546;16.426;2022-12-10T17:55:28;99337.53;;;13.22;100.00
54822;BME280;41299;43.546;16.426;2022-12-10T17:57:54;99346.13;;;13.24;100.00
54822;BME280;41299;43.546;16.426;2022-12-10T18:00:22;99352.16;;;13.24;100.00
54822;BME280;41299;43.546;16.426;2022-12-10T18:02:48;99356.41;;;13.27;100.00
54822;BME280;41299;43.546;16.426;2022-12-10T18:05:15;99353.84;;;13.25;100.00
54822;BME280;41299;43.546;16.426;2022-12-10T18:07:41;99361.66;;;13.24;100.00
54822;BME280;41299;43.546;16.426;2022-12-10T18:10:12;99358.09;;;13.28;100.00
54822;BME280;41299;43.546;16.426;2022-12-10T18:12:39;99366.75;;;13.27;100.00
54822;BME280;41299;43.546;16.426;2022-12-10T18:15:05;99354.69;;;13.26;100.00
54822;BME280;41299;43.546;16.426;2022-12-10T18:17:31;99352.00;;;13.29;100.00
54822;BME280;41299;43.546;16.426;2022-12-10T18:19:57;99352.06;;;13.28;100.00
54822;BME280;41299;43.546;16.426;2022-12-10T18:22:23;99353.72;;;13.30;100.00
54822;BME280;41299;43.546;16.426;2022-12-10T18:24:49;99355.38;;;13.33;100.00
54822;BME280;41299;43.546;16.426;2022-12-10T18:27:15;99347.50;;;13.36;100.00
54822;BME280;41299;43.546;16.426;2022-12-10T18:29:41;99345.03;;;13.33;100.00
54822;BME280;41299;43.546;16.426;2022-12-10T19:03:50;99312.28;;;13.62;100.00
54822;BME280;41299;43.546;16.426;2022-12-10T19:06:17;99310.34;;;13.69;100.00
54822;BME280;41299;43.546;16.426;2022-12-10T19:08:43;99308.69;;;13.66;100.00
54822;BME280;41299;43.546;16.426;2022-12-10T19:11:09;99311.28;;;13.66;100.00
54822;BME280;41299;43.546;16.426;2022-12-10T19:13:35;99304.31;;;13.68;100.00
54822;BME280;41299;43.546;16.426;2022-12-10T19:16:01;99304.34;;;13.67;100.00
54822;BME280;41299;43.546;16.426;2022-12-10T19:18:27;99307.66;;;13.72;100.00
54822;BME280;41299;43.546;16.426;2022-12-10T19:20:52;99301.66;;;13.70;100.00
54822;BME280;41299;43.546;16.426;2022-12-10T19:25:51;99298.19;;;13.71;100.00
54822;BME280;41299;43.546;16.426;2022-12-10T19:28:32;99297.34;;;13.70;100.00
54822;BME280;41299;43.546;16.426;2022-12-10T19:30:59;99298.28;;;13.68;100.00
54822;BME280;41299;43.546;16.426;2022-12-10T19:33:25;99287.91;;;13.68;100.00
54822;BME280;41299;43.546;16.426;2022-12-10T19:35:51;99286.13;;;13.70;100.00
54822;BME280;41299;43.546;16.426;2022-12-10T19:38:18;99294.78;;;13.69;100.00
54822;BME280;41299;43.546;16.426;2022-12-10T19:40:45;99284.44;;;13.69;100.00
54822;BME280;41299;43.546;16.426;2022-12-10T19:43:11;99282.72;;;13.68;100.00
54822;BME280;41299;43.546;16.426;2022-12-10T19:45:38;99279.25;;;13.69;100.00
54822;BME280;41299;43.546;16.426;2022-12-10T19:51:02;99287.91;;;13.68;100.00
54822;BME280;41299;43.546;16.426;2022-12-10T19:53:35;99276.72;;;13.67;100.00
54822;BME280;41299;43.546;16.426;2022-12-10T19:56:01;99263.66;;;13.70;100.00
54822;BME280;41299;43.546;16.426;2022-12-10T19:58:29;99251.56;;;13.71;100.00
54822;BME280;41299;43.546;16.426;2022-12-10T20:01:11;99249.03;;;13.69;100.00
54822;BME280;41299;43.546;16.426;2022-12-10T20:03:45;99252.81;;;13.57;100.00
54822;BME280;41299;43.546;16.426;2022-12-10T20:06:23;99252.03;;;13.55;100.00
54822;BME280;41299;43.546;16.426;2022-12-10T20:08:55;99258.94;;;13.55;100.00
54822;BME280;41299;43.546;16.426;2022-12-10T20:11:24;99240.09;;;13.49;100.00
54822;BME280;41299;43.546;16.426;2022-12-10T20:13:50;99247.03;;;13.49;100.00
54822;BME280;41299;43.546;16.426;2022-12-10T20:16:18;99242.69;;;13.49;100.00
54822;BME280;41299;43.546;16.426;2022-12-10T20:18:44;99234.88;;;13.51;100.00
54822;BME280;41299;43.546;16.426;2022-12-10T20:21:11;99242.56;;;13.54;100.00
54822;BME280;41299;43.546;16.426;2022-12-10T20:23:36;99240.94;;;13.51;100.00
54822;BME280;41299;43.546;16.426;2022-12-10T20:26:21;99245.28;;;13.49;100.00
54822;BME280;41299;43.546;16.426;2022-12-10T20:29:01;99247.84;;;13.51;100.00
54822;BME280;41299;43.546;16.426;2022-12-10T20:31:36;99258.19;;;13.51;100.00
54822;BME280;41299;43.546;16.426;2022-12-10T20:34:19;99243.59;;;13.48;100.00
54822;BME280;41299;43.546;16.426;2022-12-10T20:37:02;99245.34;;;13.48;100.00
54822;BME280;41299;43.546;16.426;2022-12-10T20:39:45;99240.22;;;13.45;100.00
54822;BME280;41299;43.546;16.426;2022-12-10T20:42:23;99240.41;;;13.38;100.00
54822;BME280;41299;43.546;16.426;2022-12-10T20:44:53;99248.19;;;13.38;100.00
54822;BME280;41299;43.546;16.426;2022-12-10T20:47:27;99258.50;;;13.40;100.00
54822;BME280;41299;43.546;16.426;2022-12-10T20:50:15;99256.13;;;13.32;100.00
54822;BME280;41299;43.546;16.426;2022-12-10T20:52:41;99247.59;;;13.30;100.00
54822;BME280;41299;43.546;16.426;2022-12-10T20:55:09;99261.41;;;13.29;100.00
54822;BME280;41299;43.546;16.426;2022-12-10T20:57:35;99275.38;;;13.23;100.00
54822;BME280;41299;43.546;16.426;2022-12-10T21:00:02;99275.84;;;13.06;100.00
54822;BME280;41299;43.546;16.426;2022-12-10T21:02:32;99248.97;;;12.80;100.00
54822;BME280;41299;43.546;16.426;2022-12-10T21:04:58;99225.78;;;12.77;100.00
54822;BME280;41299;43.546;16.426;2022-12-10T21:07:24;99223.00;;;12.83;100.00
54822;BME280;41299;43.546;16.426;2022-12-10T21:09:50;99216.31;;;12.76;100.00
54822;BME280;41299;43.546;16.426;2022-12-10T21:12:19;99223.19;;;12.77;100.00
54822;BME280;41299;43.546;16.426;2022-12-10T21:14:45;99219.25;;;12.64;100.00
54822;BME280;41299;43.546;16.426;2022-12-10T21:17:16;99211.72;;;12.54;100.00
54822;BME280;41299;43.546;16.426;2022-12-10T21:19:42;99213.28;;;12.62;100.00
54822;BME280;41299;43.546;16.426;2022-12-10T21:22:23;99228.97;;;12.55;100.00
54822;BME280;41299;43.546;16.426;2022-12-10T21:24:50;99231.59;;;12.54;100.00
54822;BME280;41299;43.546;16.426;2022-12-10T21:27:16;99248.03;;;12.51;100.00
54822;BME280;41299;43.546;16.426;2022-12-10T21:29:42;99248.28;;;12.42;100.00
54822;BME280;41299;43.546;16.426;2022-12-10T21:32:08;99251.75;;;12.41;100.00